MMUN/CUN METAR and TAF weather

Enter ICAO airport designator
Station Type Date Time Source
MMUN METAR 2021/03/02 16:49 UTC NOAA

MMUN 021649Z 14014KT 7SM SCT015 29/21 A3006 RMK 8/100 MDT CU


Station Type Date Time Source
MMUN Decoded METAR 2021/03/02 16:49 UTC NOAA

Cancun International Airport, Mexico (MMUN) 21-02N 086-52W
Mar 02, 2021 - 11:49 AM EST / 2021.03.02 1649 UTC
Wind: from the SE (140 degrees) at 16 MPH (14 KT):0
Visibility: 7 mile(s):0
Sky conditions: partly cloudy
Temperature: 84 F (29 C)
Dew Point: 69 F (21 C)
Relative Humidity: 62%
Pressure (altimeter): 30.06 in. Hg (1017 hPa)
ob: MMUN 021649Z 14014KT 7SM SCT015 29/21 A3006 RMK 8/100 MDT CU
cycle: 17

Station Type Date Time Source
MMUN TAF 2021/03/02 18:14 UTC NOAA

TAF MMUN 021707Z 0218/0324 15015KT P6SM BKN020 TX29/0218Z TN24/0312Z
BECMG 0300/0301 00000KT
FM031200 00000KT P6SM OVC010
FM031700 16012KT P6SM SCT015

Example: see airport list